< Typhoon 197217 1972 Season Typhoon 197219 >
Typhoon 197218 (FLOSSIE)
General InformationTrack Information on Google Maps || NewsDisaster Info.ResourceGoogle EarthGE AnimationAtom FeedGeoJSON
Detalied Best Track (Time Zone = UTC)
Year Month Day Hour Lat. Long. Pressure (hPa) Wind (kt) Class Image Chart
1972 9 7 06 11.6 137.1 1004 0 2 -- Chart
1972 9 7 12 12.1 136.2 1004 0 2 -- Chart
1972 9 7 18 12.5 134.8 1004 0 2 -- Chart
1972 9 8 00 12.8 133.3 1004 0 2 -- Chart
1972 9 8 06 12.9 131.6 1004 0 2 -- Chart
1972 9 8 12 13.2 130.0 1004 0 2 -- Chart
1972 9 8 18 13.5 128.9 1006 0 2 -- Chart
1972 9 9 00 13.8 128.0 1006 0 2 -- Chart
1972 9 9 06 14.1 126.4 1006 0 2 -- Chart
1972 9 9 12 14.3 124.8 1006 0 2 -- Chart
1972 9 9 18 14.5 123.4 1006 0 2 -- Chart
1972 9 10 00 14.6 122.2 1006 0 2 -- Chart
1972 9 10 06 14.7 121.5 1004 0 2 -- Chart
1972 9 10 12 14.6 120.8 1004 0 2 -- Chart
1972 9 10 18 14.5 120.3 1004 0 2 -- Chart
1972 9 11 00 14.5 119.4 1004 0 2 -- Chart
1972 9 11 06 14.8 118.6 1004 0 2 -- Chart
1972 9 11 12 15.0 117.8 1004 0 2 -- Chart
1972 9 11 18 14.7 117.0 1004 0 2 -- Chart
1972 9 12 00 14.7 116.2 1004 0 2 -- Chart
1972 9 12 06 14.8 115.7 1000 0 9 -- Chart
1972 9 12 12 15.0 115.2 996 0 9 -- Chart
1972 9 12 18 15.3 114.8 994 0 9 -- Chart
1972 9 13 00 15.3 114.3 990 0 9 -- Chart
1972 9 13 06 15.5 113.8 990 0 9 -- Chart
1972 9 13 12 15.5 113.3 990 0 9 -- Chart
1972 9 13 18 15.4 112.8 985 0 9 -- Chart
1972 9 14 00 15.3 112.5 985 0 9 -- Chart
1972 9 14 06 15.2 112.2 980 0 9 -- Chart
1972 9 14 12 15.1 111.6 975 0 9 -- Chart
1972 9 14 18 15.1 111.1 975 0 9 -- Chart
1972 9 15 00 15.0 110.6 975 0 9 -- Chart
1972 9 15 06 14.9 110.2 975 0 9 -- Chart
1972 9 15 12 14.8 109.6 980 0 9 -- Chart
1972 9 15 18 14.8 109.0 980 0 9 -- Chart
1972 9 16 00 14.7 108.5 1000 0 9 -- Chart
1972 9 16 06 14.7 108.0 1002 0 2 -- Chart
1972 9 16 12 14.6 107.5 1002 0 2 -- Chart
1972 9 16 18 14.6 107.0 1004 0 2 -- Chart
1972 9 17 00 14.6 106.5 1004 0 2 -- Chart
1972 9 17 06 14.8 106.0 1004 0 2 -- Chart
1972 9 17 12 15.0 105.0 1002 0 2 -- Chart
1972 9 17 18 15.0 104.4 1004 0 2 -- Chart
1972 9 18 00 15.0 104.1 1004 0 2 -- Chart
Japan Meteorological Agency Best Track Data | Correction Date : 1989-06-01
< Typhoon 197217 1972 Season Typhoon 197219 >

Help